sensor_id;sensor_type;location;lat;lon;timestamp;P1;durP1;ratioP1;P2;durP2;ratioP2
19374;SDS011;9823;50.936;4.046;2022-10-16T00:00:43;1.47;;;1.00;;
19374;SDS011;9823;50.936;4.046;2022-10-16T00:03:09;1.97;;;1.00;;
19374;SDS011;9823;50.936;4.046;2022-10-16T00:05:41;2.03;;;1.20;;
19374;SDS011;9823;50.936;4.046;2022-10-16T00:08:08;4.13;;;0.87;;
19374;SDS011;9823;50.936;4.046;2022-10-16T00:10:37;2.17;;;1.10;;
19374;SDS011;9823;50.936;4.046;2022-10-16T00:13:05;2.57;;;1.13;;
19374;SDS011;9823;50.936;4.046;2022-10-16T00:15:37;3.63;;;1.40;;
19374;SDS011;9823;50.936;4.046;2022-10-16T00:18:09;3.10;;;0.97;;
19374;SDS011;9823;50.936;4.046;2022-10-16T00:20:39;1.97;;;1.10;;
19374;SDS011;9823;50.936;4.046;2022-10-16T00:23:12;1.57;;;0.97;;
19374;SDS011;9823;50.936;4.046;2022-10-16T00:25:45;1.67;;;1.00;;
19374;SDS011;9823;50.936;4.046;2022-10-16T00:28:26;3.40;;;0.90;;
19374;SDS011;9823;50.936;4.046;2022-10-16T00:30:53;3.57;;;1.30;;
19374;SDS011;9823;50.936;4.046;2022-10-16T00:33:21;2.23;;;1.10;;
19374;SDS011;9823;50.936;4.046;2022-10-16T00:35:47;1.63;;;1.20;;
19374;SDS011;9823;50.936;4.046;2022-10-16T00:38:13;4.23;;;1.20;;
19374;SDS011;9823;50.936;4.046;2022-10-16T00:40:39;4.27;;;1.23;;
19374;SDS011;9823;50.936;4.046;2022-10-16T00:43:40;2.93;;;1.17;;
19374;SDS011;9823;50.936;4.046;2022-10-16T00:46:02;2.77;;;1.10;;
19374;SDS011;9823;50.936;4.046;2022-10-16T00:48:28;2.33;;;1.10;;
19374;SDS011;9823;50.936;4.046;2022-10-16T00:50:54;2.10;;;1.00;;
19374;SDS011;9823;50.936;4.046;2022-10-16T00:53:21;4.87;;;1.23;;
19374;SDS011;9823;50.936;4.046;2022-10-16T00:55:49;2.10;;;1.10;;
19374;SDS011;9823;50.936;4.046;2022-10-16T00:58:15;1.80;;;1.10;;
19374;SDS011;9823;50.936;4.046;2022-10-16T01:00:43;2.80;;;1.20;;
19374;SDS011;9823;50.936;4.046;2022-10-16T01:03:23;2.47;;;1.07;;
19374;SDS011;9823;50.936;4.046;2022-10-16T01:05:54;2.93;;;1.00;;
19374;SDS011;9823;50.936;4.046;2022-10-16T01:08:38;1.67;;;1.00;;
19374;SDS011;9823;50.936;4.046;2022-10-16T01:13:46;2.23;;;1.20;;
19374;SDS011;9823;50.936;4.046;2022-10-16T01:16:18;2.93;;;1.20;;
19374;SDS011;9823;50.936;4.046;2022-10-16T01:18:52;3.03;;;1.20;;
19374;SDS011;9823;50.936;4.046;2022-10-16T01:28:59;2.10;;;1.20;;
19374;SDS011;9823;50.936;4.046;2022-10-16T01:31:28;2.63;;;1.40;;
19374;SDS011;9823;50.936;4.046;2022-10-16T01:34:00;5.13;;;1.30;;
19374;SDS011;9823;50.936;4.046;2022-10-16T01:36:29;2.50;;;1.30;;
19374;SDS011;9823;50.936;4.046;2022-10-16T01:38:56;2.37;;;1.10;;
19374;SDS011;9823;50.936;4.046;2022-10-16T01:41:48;2.70;;;1.40;;
19374;SDS011;9823;50.936;4.046;2022-10-16T01:44:19;5.43;;;1.60;;
19374;SDS011;9823;50.936;4.046;2022-10-16T01:46:46;5.40;;;1.70;;
19374;SDS011;9823;50.936;4.046;2022-10-16T01:49:14;3.00;;;1.60;;
19374;SDS011;9823;50.936;4.046;2022-10-16T01:51:40;2.43;;;1.50;;
19374;SDS011;9823;50.936;4.046;2022-10-16T01:54:16;4.93;;;1.57;;
19374;SDS011;9823;50.936;4.046;2022-10-16T01:56:43;2.93;;;1.50;;
19374;SDS011;9823;50.936;4.046;2022-10-16T01:59:13;3.10;;;1.37;;
19374;SDS011;9823;50.936;4.046;2022-10-16T02:01:42;5.77;;;1.63;;
19374;SDS011;9823;50.936;4.046;2022-10-16T02:04:18;3.23;;;1.67;;
19374;SDS011;9823;50.936;4.046;2022-10-16T02:06:47;8.17;;;2.40;;
19374;SDS011;9823;50.936;4.046;2022-10-16T02:09:13;2.90;;;1.60;;
19374;SDS011;9823;50.936;4.046;2022-10-16T02:11:42;2.40;;;1.77;;
19374;SDS011;9823;50.936;4.046;2022-10-16T02:14:10;4.00;;;1.67;;
19374;SDS011;9823;50.936;4.046;2022-10-16T02:16:37;3.50;;;1.80;;
19374;SDS011;9823;50.936;4.046;2022-10-16T02:19:04;4.03;;;1.70;;
19374;SDS011;9823;50.936;4.046;2022-10-16T02:21:43;8.57;;;2.40;;
19374;SDS011;9823;50.936;4.046;2022-10-16T02:29:14;3.80;;;1.70;;
19374;SDS011;9823;50.936;4.046;2022-10-16T02:31:41;4.30;;;2.10;;
19374;SDS011;9823;50.936;4.046;2022-10-16T02:34:11;3.67;;;1.80;;
19374;SDS011;9823;50.936;4.046;2022-10-16T02:36:38;6.90;;;2.23;;
19374;SDS011;9823;50.936;4.046;2022-10-16T02:39:07;4.20;;;1.80;;
19374;SDS011;9823;50.936;4.046;2022-10-16T02:41:33;7.00;;;2.20;;
19374;SDS011;9823;50.936;4.046;2022-10-16T02:43:59;4.00;;;2.07;;
19374;SDS011;9823;50.936;4.046;2022-10-16T02:46:25;2.83;;;2.00;;
19374;SDS011;9823;50.936;4.046;2022-10-16T02:48:53;7.30;;;1.87;;
19374;SDS011;9823;50.936;4.046;2022-10-16T02:51:19;5.07;;;2.13;;
19374;SDS011;9823;50.936;4.046;2022-10-16T02:53:45;5.53;;;2.00;;
19374;SDS011;9823;50.936;4.046;2022-10-16T02:56:11;6.33;;;1.97;;
19374;SDS011;9823;50.936;4.046;2022-10-16T02:58:37;5.00;;;1.80;;
19374;SDS011;9823;50.936;4.046;2022-10-16T03:01:03;5.67;;;1.93;;
19374;SDS011;9823;50.936;4.046;2022-10-16T03:03:29;6.27;;;1.83;;
19374;SDS011;9823;50.936;4.046;2022-10-16T03:05:55;3.27;;;2.03;;
19374;SDS011;9823;50.936;4.046;2022-10-16T03:08:22;3.73;;;2.07;;
19374;SDS011;9823;50.936;4.046;2022-10-16T03:10:52;5.93;;;1.93;;
19374;SDS011;9823;50.936;4.046;2022-10-16T03:13:18;3.93;;;2.00;;
19374;SDS011;9823;50.936;4.046;2022-10-16T03:15:45;4.83;;;2.17;;
19374;SDS011;9823;50.936;4.046;2022-10-16T03:18:13;5.37;;;1.90;;
19374;SDS011;9823;50.936;4.046;2022-10-16T03:20:42;5.47;;;2.50;;
19374;SDS011;9823;50.936;4.046;2022-10-16T03:23:08;7.47;;;2.40;;
19374;SDS011;9823;50.936;4.046;2022-10-16T03:25:43;5.37;;;2.00;;
19374;SDS011;9823;50.936;4.046;2022-10-16T03:28:14;3.47;;;2.23;;
19374;SDS011;9823;50.936;4.046;2022-10-16T03:30:40;7.17;;;2.17;;
19374;SDS011;9823;50.936;4.046;2022-10-16T03:33:06;8.67;;;2.50;;
19374;SDS011;9823;50.936;4.046;2022-10-16T03:35:32;4.53;;;2.07;;
19374;SDS011;9823;50.936;4.046;2022-10-16T03:37:58;4.67;;;1.90;;
19374;SDS011;9823;50.936;4.046;2022-10-16T03:40:27;6.47;;;2.17;;
19374;SDS011;9823;50.936;4.046;2022-10-16T03:42:53;4.57;;;2.10;;
19374;SDS011;9823;50.936;4.046;2022-10-16T03:45:22;4.43;;;2.10;;
19374;SDS011;9823;50.936;4.046;2022-10-16T03:47:48;4.97;;;1.90;;
19374;SDS011;9823;50.936;4.046;2022-10-16T03:50:17;6.53;;;2.30;;
19374;SDS011;9823;50.936;4.046;2022-10-16T03:52:43;7.00;;;2.10;;
19374;SDS011;9823;50.936;4.046;2022-10-16T03:55:09;4.33;;;2.30;;
19374;SDS011;9823;50.936;4.046;2022-10-16T03:57:35;8.90;;;2.63;;
19374;SDS011;9823;50.936;4.046;2022-10-16T04:00:06;5.10;;;2.30;;
19374;SDS011;9823;50.936;4.046;2022-10-16T04:02:32;4.43;;;2.60;;
19374;SDS011;9823;50.936;4.046;2022-10-16T04:04:58;8.77;;;2.73;;
19374;SDS011;9823;50.936;4.046;2022-10-16T04:07:24;4.80;;;2.40;;
19374;SDS011;9823;50.936;4.046;2022-10-16T04:09:50;4.77;;;2.50;;
19374;SDS011;9823;50.936;4.046;2022-10-16T04:12:18;4.00;;;2.30;;
19374;SDS011;9823;50.936;4.046;2022-10-16T04:14:44;6.33;;;2.77;;
19374;SDS011;9823;50.936;4.046;2022-10-16T04:17:10;4.57;;;2.47;;
19374;SDS011;9823;50.936;4.046;2022-10-16T04:19:36;5.13;;;2.60;;
19374;SDS011;9823;50.936;4.046;2022-10-16T04:22:04;5.20;;;2.50;;
19374;SDS011;9823;50.936;4.046;2022-10-16T04:24:30;4.83;;;3.00;;
19374;SDS011;9823;50.936;4.046;2022-10-16T04:26:56;8.00;;;2.70;;
19374;SDS011;9823;50.936;4.046;2022-10-16T04:29:25;5.43;;;2.63;;
19374;SDS011;9823;50.936;4.046;2022-10-16T04:31:51;7.83;;;3.03;;
19374;SDS011;9823;50.936;4.046;2022-10-16T04:34:19;5.70;;;2.50;;
19374;SDS011;9823;50.936;4.046;2022-10-16T04:36:48;8.70;;;2.90;;
19374;SDS011;9823;50.936;4.046;2022-10-16T04:39:17;10.23;;;2.70;;
19374;SDS011;9823;50.936;4.046;2022-10-16T04:41:43;7.87;;;2.80;;
19374;SDS011;9823;50.936;4.046;2022-10-16T04:44:09;8.37;;;2.77;;
19374;SDS011;9823;50.936;4.046;2022-10-16T04:46:35;4.77;;;2.77;;
19374;SDS011;9823;50.936;4.046;2022-10-16T04:49:01;4.27;;;2.47;;
19374;SDS011;9823;50.936;4.046;2022-10-16T04:51:27;7.63;;;2.80;;
19374;SDS011;9823;50.936;4.046;2022-10-16T04:53:53;8.90;;;2.60;;
19374;SDS011;9823;50.936;4.046;2022-10-16T04:56:21;8.13;;;2.83;;
19374;SDS011;9823;50.936;4.046;2022-10-16T04:58:48;6.53;;;2.77;;
19374;SDS011;9823;50.936;4.046;2022-10-16T05:01:14;9.30;;;2.63;;
19374;SDS011;9823;50.936;4.046;2022-10-16T05:03:40;7.47;;;2.80;;
19374;SDS011;9823;50.936;4.046;2022-10-16T05:06:08;6.13;;;2.80;;
19374;SDS011;9823;50.936;4.046;2022-10-16T05:08:34;5.60;;;2.57;;
19374;SDS011;9823;50.936;4.046;2022-10-16T05:11:00;5.47;;;2.50;;
19374;SDS011;9823;50.936;4.046;2022-10-16T05:13:28;5.13;;;2.63;;
19374;SDS011;9823;50.936;4.046;2022-10-16T05:15:54;8.40;;;2.67;;
19374;SDS011;9823;50.936;4.046;2022-10-16T05:18:20;5.53;;;2.90;;
19374;SDS011;9823;50.936;4.046;2022-10-16T05:20:46;6.03;;;2.37;;
19374;SDS011;9823;50.936;4.046;2022-10-16T05:23:12;5.90;;;2.60;;
19374;SDS011;9823;50.936;4.046;2022-10-16T05:25:38;7.83;;;2.50;;
19374;SDS011;9823;50.936;4.046;2022-10-16T05:28:04;4.27;;;2.70;;
19374;SDS011;9823;50.936;4.046;2022-10-16T05:30:32;8.30;;;2.53;;
19374;SDS011;9823;50.936;4.046;2022-10-16T05:33:01;8.17;;;2.83;;
19374;SDS011;9823;50.936;4.046;2022-10-16T05:35:27;8.73;;;2.93;;
19374;SDS011;9823;50.936;4.046;2022-10-16T05:37:53;8.37;;;2.90;;
19374;SDS011;9823;50.936;4.046;2022-10-16T05:40:19;7.73;;;3.27;;
19374;SDS011;9823;50.936;4.046;2022-10-16T05:42:45;7.17;;;3.27;;
19374;SDS011;9823;50.936;4.046;2022-10-16T05:45:13;11.27;;;3.03;;
19374;SDS011;9823;50.936;4.046;2022-10-16T05:47:39;5.00;;;2.57;;
19374;SDS011;9823;50.936;4.046;2022-10-16T05:50:07;6.37;;;2.87;;
19374;SDS011;9823;50.936;4.046;2022-10-16T05:52:38;6.50;;;2.73;;
19374;SDS011;9823;50.936;4.046;2022-10-16T05:55:04;6.37;;;3.23;;
19374;SDS011;9823;50.936;4.046;2022-10-16T05:57:32;6.30;;;3.37;;
19374;SDS011;9823;50.936;4.046;2022-10-16T05:59:59;5.93;;;2.90;;
19374;SDS011;9823;50.936;4.046;2022-10-16T06:02:24;6.43;;;3.00;;
19374;SDS011;9823;50.936;4.046;2022-10-16T06:04:53;6.17;;;2.60;;
19374;SDS011;9823;50.936;4.046;2022-10-16T06:07:20;8.33;;;3.00;;
19374;SDS011;9823;50.936;4.046;2022-10-16T06:09:49;4.90;;;2.73;;
19374;SDS011;9823;50.936;4.046;2022-10-16T06:12:15;5.07;;;2.83;;
19374;SDS011;9823;50.936;4.046;2022-10-16T06:14:41;6.70;;;2.73;;
19374;SDS011;9823;50.936;4.046;2022-10-16T06:17:08;6.50;;;3.23;;
19374;SDS011;9823;50.936;4.046;2022-10-16T06:19:38;3.93;;;2.50;;
19374;SDS011;9823;50.936;4.046;2022-10-16T06:22:04;6.00;;;2.70;;
19374;SDS011;9823;50.936;4.046;2022-10-16T06:24:35;7.53;;;2.93;;
19374;SDS011;9823;50.936;4.046;2022-10-16T06:27:01;6.00;;;2.70;;
19374;SDS011;9823;50.936;4.046;2022-10-16T06:29:28;7.23;;;2.90;;
19374;SDS011;9823;50.936;4.046;2022-10-16T06:31:54;6.30;;;2.90;;
19374;SDS011;9823;50.936;4.046;2022-10-16T06:34:20;4.23;;;2.50;;
19374;SDS011;9823;50.936;4.046;2022-10-16T06:36:46;5.07;;;2.80;;
19374;SDS011;9823;50.936;4.046;2022-10-16T06:39:12;8.37;;;3.50;;
19374;SDS011;9823;50.936;4.046;2022-10-16T06:41:38;6.57;;;3.00;;
19374;SDS011;9823;50.936;4.046;2022-10-16T06:44:06;8.20;;;3.10;;
19374;SDS011;9823;50.936;4.046;2022-10-16T06:46:32;7.00;;;3.20;;
19374;SDS011;9823;50.936;4.046;2022-10-16T06:49:01;6.60;;;2.97;;
19374;SDS011;9823;50.936;4.046;2022-10-16T06:51:31;7.80;;;3.27;;
19374;SDS011;9823;50.936;4.046;2022-10-16T06:53:59;8.80;;;2.97;;
19374;SDS011;9823;50.936;4.046;2022-10-16T06:56:26;6.73;;;2.97;;
19374;SDS011;9823;50.936;4.046;2022-10-16T06:58:52;9.10;;;2.90;;
19374;SDS011;9823;50.936;4.046;2022-10-16T07:01:22;8.23;;;3.03;;
19374;SDS011;9823;50.936;4.046;2022-10-16T07:03:48;6.73;;;2.80;;
19374;SDS011;9823;50.936;4.046;2022-10-16T07:06:16;7.60;;;2.80;;
19374;SDS011;9823;50.936;4.046;2022-10-16T07:08:43;6.67;;;3.00;;
19374;SDS011;9823;50.936;4.046;2022-10-16T07:11:14;6.07;;;2.80;;
19374;SDS011;9823;50.936;4.046;2022-10-16T07:13:42;8.93;;;2.80;;
19374;SDS011;9823;50.936;4.046;2022-10-16T07:16:10;7.83;;;2.97;;
19374;SDS011;9823;50.936;4.046;2022-10-16T07:18:36;4.47;;;2.80;;
19374;SDS011;9823;50.936;4.046;2022-10-16T07:23:31;10.23;;;2.80;;
19374;SDS011;9823;50.936;4.046;2022-10-16T07:26:00;6.07;;;2.67;;
19374;SDS011;9823;50.936;4.046;2022-10-16T07:28:26;6.27;;;2.60;;
19374;SDS011;9823;50.936;4.046;2022-10-16T07:30:52;8.10;;;2.50;;
19374;SDS011;9823;50.936;4.046;2022-10-16T07:33:23;5.27;;;2.50;;
19374;SDS011;9823;50.936;4.046;2022-10-16T07:35:51;5.07;;;2.20;;
19374;SDS011;9823;50.936;4.046;2022-10-16T07:38:18;5.47;;;2.27;;
19374;SDS011;9823;50.936;4.046;2022-10-16T07:40:47;6.83;;;2.50;;
19374;SDS011;9823;50.936;4.046;2022-10-16T07:43:19;7.07;;;2.40;;
19374;SDS011;9823;50.936;4.046;2022-10-16T07:45:48;4.83;;;2.30;;
19374;SDS011;9823;50.936;4.046;2022-10-16T07:48:17;3.90;;;2.13;;
19374;SDS011;9823;50.936;4.046;2022-10-16T07:50:43;4.70;;;2.20;;
19374;SDS011;9823;50.936;4.046;2022-10-16T07:53:12;6.37;;;2.17;;
19374;SDS011;9823;50.936;4.046;2022-10-16T07:55:38;5.50;;;2.17;;
19374;SDS011;9823;50.936;4.046;2022-10-16T07:58:04;5.27;;;2.43;;
19374;SDS011;9823;50.936;4.046;2022-10-16T08:00:33;6.87;;;2.33;;
19374;SDS011;9823;50.936;4.046;2022-10-16T08:02:59;7.47;;;2.17;;
19374;SDS011;9823;50.936;4.046;2022-10-16T08:05:26;6.17;;;2.20;;
19374;SDS011;9823;50.936;4.046;2022-10-16T08:07:52;5.20;;;2.20;;
19374;SDS011;9823;50.936;4.046;2022-10-16T08:10:21;2.80;;;1.80;;
19374;SDS011;9823;50.936;4.046;2022-10-16T08:12:50;5.70;;;2.27;;
19374;SDS011;9823;50.936;4.046;2022-10-16T08:15:16;4.20;;;1.83;;
19374;SDS011;9823;50.936;4.046;2022-10-16T08:17:42;5.57;;;2.03;;
19374;SDS011;9823;50.936;4.046;2022-10-16T08:20:08;7.67;;;2.37;;
19374;SDS011;9823;50.936;4.046;2022-10-16T08:22:35;3.57;;;1.73;;
19374;SDS011;9823;50.936;4.046;2022-10-16T08:25:01;6.93;;;1.87;;
19374;SDS011;9823;50.936;4.046;2022-10-16T08:27:32;6.13;;;2.23;;
19374;SDS011;9823;50.936;4.046;2022-10-16T08:30:00;7.00;;;1.83;;
19374;SDS011;9823;50.936;4.046;2022-10-16T08:32:26;4.27;;;2.07;;
19374;SDS011;9823;50.936;4.046;2022-10-16T08:34:52;5.37;;;2.00;;
19374;SDS011;9823;50.936;4.046;2022-10-16T08:37:18;6.40;;;1.90;;
19374;SDS011;9823;50.936;4.046;2022-10-16T08:39:44;8.43;;;2.10;;
19374;SDS011;9823;50.936;4.046;2022-10-16T08:42:16;8.90;;;2.67;;
19374;SDS011;9823;50.936;4.046;2022-10-16T08:50:10;9.43;;;2.53;;
19374;SDS011;9823;50.936;4.046;2022-10-16T08:52:39;7.73;;;2.10;;
19374;SDS011;9823;50.936;4.046;2022-10-16T08:55:28;7.23;;;1.90;;
19374;SDS011;9823;50.936;4.046;2022-10-16T08:57:55;6.73;;;2.07;;
19374;SDS011;9823;50.936;4.046;2022-10-16T09:00:24;5.90;;;2.10;;
19374;SDS011;9823;50.936;4.046;2022-10-16T09:03:05;10.77;;;2.10;;
19374;SDS011;9823;50.936;4.046;2022-10-16T09:13:17;5.70;;;1.67;;
19374;SDS011;9823;50.936;4.046;2022-10-16T09:18:33;7.27;;;1.83;;
19374;SDS011;9823;50.936;4.046;2022-10-16T09:23:37;7.50;;;1.60;;
19374;SDS011;9823;50.936;4.046;2022-10-16T09:26:03;6.83;;;1.70;;
19374;SDS011;9823;50.936;4.046;2022-10-16T09:28:36;10.47;;;1.60;;
19374;SDS011;9823;50.936;4.046;2022-10-16T09:31:02;10.13;;;1.60;;
19374;SDS011;9823;50.936;4.046;2022-10-16T09:33:29;8.07;;;1.70;;
19374;SDS011;9823;50.936;4.046;2022-10-16T09:35:56;6.23;;;1.50;;
19374;SDS011;9823;50.936;4.046;2022-10-16T09:40:57;9.60;;;2.23;;
19374;SDS011;9823;50.936;4.046;2022-10-16T09:46:06;6.20;;;1.80;;
19374;SDS011;9823;50.936;4.046;2022-10-16T09:51:05;8.10;;;1.90;;
19374;SDS011;9823;50.936;4.046;2022-10-16T09:53:37;7.20;;;1.67;;
19374;SDS011;9823;50.936;4.046;2022-10-16T09:56:09;6.03;;;2.00;;
19374;SDS011;9823;50.936;4.046;2022-10-16T09:58:41;7.73;;;1.97;;
19374;SDS011;9823;50.936;4.046;2022-10-16T10:01:13;4.83;;;1.60;;
19374;SDS011;9823;50.936;4.046;2022-10-16T10:03:40;5.87;;;1.67;;
19374;SDS011;9823;50.936;4.046;2022-10-16T10:06:14;8.03;;;2.00;;
19374;SDS011;9823;50.936;4.046;2022-10-16T10:08:52;7.47;;;1.70;;
19374;SDS011;9823;50.936;4.046;2022-10-16T10:11:20;12.13;;;2.00;;
19374;SDS011;9823;50.936;4.046;2022-10-16T10:14:05;5.27;;;1.83;;
19374;SDS011;9823;50.936;4.046;2022-10-16T10:16:31;6.23;;;1.87;;
19374;SDS011;9823;50.936;4.046;2022-10-16T10:18:58;7.20;;;2.10;;
19374;SDS011;9823;50.936;4.046;2022-10-16T10:21:26;6.20;;;1.87;;
19374;SDS011;9823;50.936;4.046;2022-10-16T10:23:55;6.20;;;2.03;;
19374;SDS011;9823;50.936;4.046;2022-10-16T10:26:25;9.70;;;1.97;;
19374;SDS011;9823;50.936;4.046;2022-10-16T10:31:40;5.10;;;2.03;;
19374;SDS011;9823;50.936;4.046;2022-10-16T10:36:57;6.93;;;1.90;;
19374;SDS011;9823;50.936;4.046;2022-10-16T10:39:37;7.90;;;2.27;;
19374;SDS011;9823;50.936;4.046;2022-10-16T10:47:32;6.50;;;2.20;;
19374;SDS011;9823;50.936;4.046;2022-10-16T10:50:12;9.37;;;2.20;;
19374;SDS011;9823;50.936;4.046;2022-10-16T10:55:23;7.57;;;1.77;;
19374;SDS011;9823;50.936;4.046;2022-10-16T11:05:50;5.73;;;1.60;;
19374;SDS011;9823;50.936;4.046;2022-10-16T11:08:17;8.33;;;1.93;;
19374;SDS011;9823;50.936;4.046;2022-10-16T11:10:53;6.63;;;1.90;;
19374;SDS011;9823;50.936;4.046;2022-10-16T11:13:46;7.17;;;2.00;;
19374;SDS011;9823;50.936;4.046;2022-10-16T11:16:17;6.50;;;2.10;;
19374;SDS011;9823;50.936;4.046;2022-10-16T11:18:55;6.73;;;1.47;;
19374;SDS011;9823;50.936;4.046;2022-10-16T11:21:22;7.13;;;2.10;;
19374;SDS011;9823;50.936;4.046;2022-10-16T11:26:27;10.43;;;2.13;;
19374;SDS011;9823;50.936;4.046;2022-10-16T11:28:55;3.90;;;1.40;;
19374;SDS011;9823;50.936;4.046;2022-10-16T11:31:38;4.60;;;1.40;;
19374;SDS011;9823;50.936;4.046;2022-10-16T11:34:25;5.57;;;1.50;;
19374;SDS011;9823;50.936;4.046;2022-10-16T11:36:55;5.40;;;1.13;;
19374;SDS011;9823;50.936;4.046;2022-10-16T11:46:48;4.20;;;1.23;;
19374;SDS011;9823;50.936;4.046;2022-10-16T11:49:20;6.33;;;1.50;;
19374;SDS011;9823;50.936;4.046;2022-10-16T11:57:14;6.30;;;1.50;;
19374;SDS011;9823;50.936;4.046;2022-10-16T11:59:42;7.57;;;1.60;;
19374;SDS011;9823;50.936;4.046;2022-10-16T12:07:11;5.60;;;1.47;;
19374;SDS011;9823;50.936;4.046;2022-10-16T12:09:39;3.70;;;1.30;;
19374;SDS011;9823;50.936;4.046;2022-10-16T12:12:24;4.23;;;1.67;;
19374;SDS011;9823;50.936;4.046;2022-10-16T12:15:00;6.17;;;1.30;;
19374;SDS011;9823;50.936;4.046;2022-10-16T12:17:36;3.87;;;1.40;;
19374;SDS011;9823;50.936;4.046;2022-10-16T12:22:40;9.60;;;1.20;;
19374;SDS011;9823;50.936;4.046;2022-10-16T12:27:55;4.63;;;1.33;;
19374;SDS011;9823;50.936;4.046;2022-10-16T12:30:22;5.67;;;1.43;;
19374;SDS011;9823;50.936;4.046;2022-10-16T12:33:05;4.17;;;1.20;;
19374;SDS011;9823;50.936;4.046;2022-10-16T12:35:34;6.30;;;1.23;;
19374;SDS011;9823;50.936;4.046;2022-10-16T12:38:04;7.27;;;1.60;;
19374;SDS011;9823;50.936;4.046;2022-10-16T12:40:34;5.20;;;1.10;;
19374;SDS011;9823;50.936;4.046;2022-10-16T12:43:10;3.77;;;1.13;;
19374;SDS011;9823;50.936;4.046;2022-10-16T12:45:37;4.30;;;1.10;;
19374;SDS011;9823;50.936;4.046;2022-10-16T12:48:04;3.83;;;1.20;;
19374;SDS011;9823;50.936;4.046;2022-10-16T12:50:43;6.97;;;1.20;;
19374;SDS011;9823;50.936;4.046;2022-10-16T12:53:22;5.53;;;1.10;;
19374;SDS011;9823;50.936;4.046;2022-10-16T12:55:52;6.00;;;1.00;;
19374;SDS011;9823;50.936;4.046;2022-10-16T12:58:34;3.00;;;0.73;;
19374;SDS011;9823;50.936;4.046;2022-10-16T13:01:12;4.03;;;1.10;;
19374;SDS011;9823;50.936;4.046;2022-10-16T13:12:04;1.50;;;1.00;;
19374;SDS011;9823;50.936;4.046;2022-10-16T13:14:43;5.73;;;1.20;;
19374;SDS011;9823;50.936;4.046;2022-10-16T13:22:14;4.63;;;1.10;;
19374;SDS011;9823;50.936;4.046;2022-10-16T13:27:35;2.77;;;1.10;;
19374;SDS011;9823;50.936;4.046;2022-10-16T13:30:12;3.07;;;1.10;;
19374;SDS011;9823;50.936;4.046;2022-10-16T13:32:45;3.07;;;1.10;;
19374;SDS011;9823;50.936;4.046;2022-10-16T13:35:20;2.93;;;1.20;;
19374;SDS011;9823;50.936;4.046;2022-10-16T13:37:46;2.83;;;1.00;;
19374;SDS011;9823;50.936;4.046;2022-10-16T13:40:23;5.13;;;1.27;;
19374;SDS011;9823;50.936;4.046;2022-10-16T13:42:50;3.80;;;1.00;;
19374;SDS011;9823;50.936;4.046;2022-10-16T13:45:17;1.97;;;1.00;;
19374;SDS011;9823;50.936;4.046;2022-10-16T13:47:43;1.77;;;1.00;;
19374;SDS011;9823;50.936;4.046;2022-10-16T13:50:14;5.00;;;1.50;;
19374;SDS011;9823;50.936;4.046;2022-10-16T13:52:40;2.83;;;1.20;;
19374;SDS011;9823;50.936;4.046;2022-10-16T13:55:12;2.83;;;1.13;;
19374;SDS011;9823;50.936;4.046;2022-10-16T13:57:41;5.63;;;1.13;;
19374;SDS011;9823;50.936;4.046;2022-10-16T14:03:04;5.23;;;1.10;;
19374;SDS011;9823;50.936;4.046;2022-10-16T14:05:31;4.30;;;1.40;;
19374;SDS011;9823;50.936;4.046;2022-10-16T14:07:58;2.93;;;1.40;;
19374;SDS011;9823;50.936;4.046;2022-10-16T14:10:27;2.60;;;1.10;;
19374;SDS011;9823;50.936;4.046;2022-10-16T14:13:04;6.10;;;1.37;;
19374;SDS011;9823;50.936;4.046;2022-10-16T14:15:34;3.83;;;1.37;;
19374;SDS011;9823;50.936;4.046;2022-10-16T14:18:01;4.80;;;1.00;;
19374;SDS011;9823;50.936;4.046;2022-10-16T14:20:30;3.37;;;1.23;;
19374;SDS011;9823;50.936;4.046;2022-10-16T14:23:01;5.60;;;0.97;;
19374;SDS011;9823;50.936;4.046;2022-10-16T14:25:28;4.10;;;1.30;;
19374;SDS011;9823;50.936;4.046;2022-10-16T14:38:27;4.57;;;1.20;;
19374;SDS011;9823;50.936;4.046;2022-10-16T14:40:53;4.97;;;1.00;;
19374;SDS011;9823;50.936;4.046;2022-10-16T14:43:26;4.97;;;1.03;;
19374;SDS011;9823;50.936;4.046;2022-10-16T14:45:55;2.73;;;1.00;;
19374;SDS011;9823;50.936;4.046;2022-10-16T14:48:24;3.07;;;1.10;;
19374;SDS011;9823;50.936;4.046;2022-10-16T14:50:53;4.80;;;1.33;;
19374;SDS011;9823;50.936;4.046;2022-10-16T14:53:19;4.47;;;1.27;;
19374;SDS011;9823;50.936;4.046;2022-10-16T14:55:45;5.40;;;1.40;;
19374;SDS011;9823;50.936;4.046;2022-10-16T14:58:15;7.43;;;1.50;;
19374;SDS011;9823;50.936;4.046;2022-10-16T15:00:42;2.50;;;1.27;;
19374;SDS011;9823;50.936;4.046;2022-10-16T15:03:12;3.03;;;1.50;;
19374;SDS011;9823;50.936;4.046;2022-10-16T15:05:38;6.23;;;1.57;;
19374;SDS011;9823;50.936;4.046;2022-10-16T15:08:04;5.13;;;1.47;;
19374;SDS011;9823;50.936;4.046;2022-10-16T15:10:35;3.40;;;1.23;;
19374;SDS011;9823;50.936;4.046;2022-10-16T15:13:03;7.20;;;1.60;;
19374;SDS011;9823;50.936;4.046;2022-10-16T15:15:33;8.80;;;1.53;;
19374;SDS011;9823;50.936;4.046;2022-10-16T15:18:00;3.33;;;1.47;;
19374;SDS011;9823;50.936;4.046;2022-10-16T15:20:28;2.73;;;1.40;;
19374;SDS011;9823;50.936;4.046;2022-10-16T15:22:58;5.83;;;1.50;;
19374;SDS011;9823;50.936;4.046;2022-10-16T15:25:30;7.33;;;1.60;;
19374;SDS011;9823;50.936;4.046;2022-10-16T15:27:59;4.27;;;1.60;;
19374;SDS011;9823;50.936;4.046;2022-10-16T15:30:26;6.87;;;1.63;;
19374;SDS011;9823;50.936;4.046;2022-10-16T15:32:52;5.10;;;1.40;;
19374;SDS011;9823;50.936;4.046;2022-10-16T15:35:18;5.37;;;1.60;;
19374;SDS011;9823;50.936;4.046;2022-10-16T15:37:45;5.03;;;1.60;;
19374;SDS011;9823;50.936;4.046;2022-10-16T15:40:12;4.43;;;1.27;;
19374;SDS011;9823;50.936;4.046;2022-10-16T15:42:38;5.40;;;1.77;;
19374;SDS011;9823;50.936;4.046;2022-10-16T15:45:04;5.00;;;1.60;;
19374;SDS011;9823;50.936;4.046;2022-10-16T15:47:31;7.13;;;1.90;;
19374;SDS011;9823;50.936;4.046;2022-10-16T15:49:57;4.20;;;1.63;;
19374;SDS011;9823;50.936;4.046;2022-10-16T15:52:23;4.97;;;1.60;;
19374;SDS011;9823;50.936;4.046;2022-10-16T15:54:49;6.10;;;1.80;;
19374;SDS011;9823;50.936;4.046;2022-10-16T15:57:15;7.30;;;2.33;;
19374;SDS011;9823;50.936;4.046;2022-10-16T15:59:44;7.40;;;2.10;;
19374;SDS011;9823;50.936;4.046;2022-10-16T16:02:10;12.17;;;2.30;;
19374;SDS011;9823;50.936;4.046;2022-10-16T16:04:38;8.47;;;2.73;;
19374;SDS011;9823;50.936;4.046;2022-10-16T16:07:06;8.27;;;2.33;;
19374;SDS011;9823;50.936;4.046;2022-10-16T16:09:35;4.97;;;2.03;;
19374;SDS011;9823;50.936;4.046;2022-10-16T16:12:03;5.07;;;2.20;;
19374;SDS011;9823;50.936;4.046;2022-10-16T16:14:30;7.57;;;2.47;;
19374;SDS011;9823;50.936;4.046;2022-10-16T16:16:56;6.23;;;2.50;;
19374;SDS011;9823;50.936;4.046;2022-10-16T16:19:22;6.17;;;2.27;;
19374;SDS011;9823;50.936;4.046;2022-10-16T16:21:49;4.23;;;2.20;;
19374;SDS011;9823;50.936;4.046;2022-10-16T16:24:15;7.73;;;2.13;;
19374;SDS011;9823;50.936;4.046;2022-10-16T16:26:41;7.57;;;2.20;;
19374;SDS011;9823;50.936;4.046;2022-10-16T16:29:12;7.57;;;2.37;;
19374;SDS011;9823;50.936;4.046;2022-10-16T16:31:38;5.37;;;2.30;;
19374;SDS011;9823;50.936;4.046;2022-10-16T16:34:04;4.93;;;2.30;;
19374;SDS011;9823;50.936;4.046;2022-10-16T16:36:30;5.37;;;2.20;;
19374;SDS011;9823;50.936;4.046;2022-10-16T16:38:57;8.80;;;1.97;;
19374;SDS011;9823;50.936;4.046;2022-10-16T16:41:27;5.97;;;2.10;;
19374;SDS011;9823;50.936;4.046;2022-10-16T16:44:01;4.63;;;2.17;;
19374;SDS011;9823;50.936;4.046;2022-10-16T16:46:27;5.20;;;2.20;;
19374;SDS011;9823;50.936;4.046;2022-10-16T16:48:53;9.33;;;2.20;;
19374;SDS011;9823;50.936;4.046;2022-10-16T16:51:20;6.47;;;2.60;;
19374;SDS011;9823;50.936;4.046;2022-10-16T16:53:47;10.77;;;3.20;;
19374;SDS011;9823;50.936;4.046;2022-10-16T16:56:16;7.47;;;2.83;;
19374;SDS011;9823;50.936;4.046;2022-10-16T16:58:49;7.50;;;3.33;;
19374;SDS011;9823;50.936;4.046;2022-10-16T17:01:15;5.50;;;3.20;;
19374;SDS011;9823;50.936;4.046;2022-10-16T17:03:41;11.10;;;4.17;;
19374;SDS011;9823;50.936;4.046;2022-10-16T17:06:11;8.07;;;3.70;;
19374;SDS011;9823;50.936;4.046;2022-10-16T17:08:37;7.60;;;3.17;;
19374;SDS011;9823;50.936;4.046;2022-10-16T17:11:04;7.87;;;2.90;;